sensor_id;sensor_type;location;lat;lon;timestamp;pressure;altitude;pressure_sealevel;temperature;humidity
62976;BME280;49071;0.000;0.000;2022-10-22T06:06:26;100470.31;;;17.74;51.69
62976;BME280;49071;0.000;0.000;2022-10-22T06:12:27;100480.88;;;18.06;51.12
62976;BME280;49071;0.000;0.000;2022-10-22T06:15:27;100471.69;;;18.24;50.77
62976;BME280;49071;0.000;0.000;2022-10-22T06:18:27;100472.72;;;18.45;50.46
62976;BME280;49071;0.000;0.000;2022-10-22T06:21:28;100479.50;;;18.63;50.23
62976;BME280;49071;0.000;0.000;2022-10-22T06:24:29;100487.09;;;18.81;49.97
62976;BME280;49071;0.000;0.000;2022-10-22T06:27:29;100497.00;;;18.91;49.79
62976;BME280;49071;0.000;0.000;2022-10-22T06:30:29;100487.63;;;18.94;49.83
62976;BME280;49071;0.000;0.000;2022-10-22T06:33:30;100492.31;;;18.97;49.84
62976;BME280;49071;0.000;0.000;2022-10-22T06:36:31;100497.72;;;19.01;49.59
62976;BME280;49071;0.000;0.000;2022-10-22T06:39:31;100508.16;;;19.00;49.56
62976;BME280;49071;0.000;0.000;2022-10-22T06:42:31;100509.38;;;18.99;49.56
62976;BME280;49071;0.000;0.000;2022-10-22T06:45:32;100514.06;;;19.02;49.61
62976;BME280;49071;0.000;0.000;2022-10-22T06:48:32;100519.81;;;18.98;49.72
62976;BME280;49071;0.000;0.000;2022-10-22T06:51:32;100518.72;;;18.96;49.81
62976;BME280;49071;0.000;0.000;2022-10-22T06:54:32;100518.44;;;18.94;49.89
62976;BME280;49071;0.000;0.000;2022-10-22T06:57:33;100520.16;;;18.91;50.05
62976;BME280;49071;0.000;0.000;2022-10-22T07:00:33;100521.72;;;18.92;49.98
62976;BME280;49071;0.000;0.000;2022-10-22T07:03:33;100519.81;;;18.98;50.07
62976;BME280;49071;0.000;0.000;2022-10-22T07:06:33;100513.56;;;19.04;49.90
62976;BME280;49071;0.000;0.000;2022-10-22T07:09:34;100517.75;;;19.08;49.94
62976;BME280;49071;0.000;0.000;2022-10-22T07:12:34;100508.09;;;19.09;49.88
62976;BME280;49071;0.000;0.000;2022-10-22T07:15:34;100511.69;;;19.10;49.88
62976;BME280;49071;0.000;0.000;2022-10-22T07:18:35;100512.94;;;19.09;49.86
62976;BME280;49071;0.000;0.000;2022-10-22T07:21:35;100505.31;;;19.09;49.84
62976;BME280;49071;0.000;0.000;2022-10-22T07:24:35;100521.81;;;19.07;49.68
62976;BME280;49071;0.000;0.000;2022-10-22T07:27:36;100521.50;;;19.05;49.81
62976;BME280;49071;0.000;0.000;2022-10-22T07:30:36;100520.88;;;19.01;49.91
62976;BME280;49071;0.000;0.000;2022-10-22T07:33:37;100530.53;;;19.00;49.82
62976;BME280;49071;0.000;0.000;2022-10-22T07:36:38;100527.13;;;18.96;49.89
62976;BME280;49071;0.000;0.000;2022-10-22T07:39:38;100534.00;;;18.95;49.88
62976;BME280;49071;0.000;0.000;2022-10-22T07:42:38;100543.34;;;18.92;50.03
62976;BME280;49071;0.000;0.000;2022-10-22T07:45:39;100547.06;;;18.89;49.82
62976;BME280;49071;0.000;0.000;2022-10-22T07:48:40;100553.59;;;18.86;49.99
62976;BME280;49071;0.000;0.000;2022-10-22T07:51:40;100566.97;;;18.82;50.15
62976;BME280;49071;0.000;0.000;2022-10-22T07:54:40;100567.94;;;18.79;50.17
62976;BME280;49071;0.000;0.000;2022-10-22T07:57:40;100573.69;;;18.75;50.17
62976;BME280;49071;0.000;0.000;2022-10-22T08:00:41;100579.41;;;18.71;50.14
62976;BME280;49071;0.000;0.000;2022-10-22T08:03:41;100580.38;;;18.68;50.24
62976;BME280;49071;0.000;0.000;2022-10-22T08:06:41;100584.88;;;18.66;50.38
62976;BME280;49071;0.000;0.000;2022-10-22T08:09:41;100577.91;;;18.61;50.50
62976;BME280;49071;0.000;0.000;2022-10-22T08:12:42;100585.66;;;18.57;50.64
62976;BME280;49071;0.000;0.000;2022-10-22T08:15:42;100582.41;;;18.59;50.93
62976;BME280;49071;0.000;0.000;2022-10-22T08:18:42;100588.47;;;18.57;50.91
62976;BME280;49071;0.000;0.000;2022-10-22T08:21:43;100588.47;;;18.57;50.95
62976;BME280;49071;0.000;0.000;2022-10-22T08:24:43;100587.69;;;18.57;51.06
62976;BME280;49071;0.000;0.000;2022-10-22T08:27:44;100580.53;;;18.55;51.31
62976;BME280;49071;0.000;0.000;2022-10-22T08:30:44;100572.63;;;18.54;51.20
62976;BME280;49071;0.000;0.000;2022-10-22T08:33:47;100584.75;;;18.51;51.30
62976;BME280;49071;0.000;0.000;2022-10-22T08:36:47;100584.91;;;18.47;51.27
62976;BME280;49071;0.000;0.000;2022-10-22T08:39:47;100586.59;;;18.45;51.44
62976;BME280;49071;0.000;0.000;2022-10-22T08:48:57;100605.56;;;18.41;51.66
62976;BME280;49071;0.000;0.000;2022-10-22T08:51:59;100608.03;;;18.39;51.69
62976;BME280;49071;0.000;0.000;2022-10-22T08:55:01;100613.34;;;18.37;51.56
62976;BME280;49071;0.000;0.000;2022-10-22T08:58:25;100616.16;;;18.37;51.57
62976;BME280;49071;0.000;0.000;2022-10-22T09:01:26;100622.81;;;18.39;51.71
62976;BME280;49071;0.000;0.000;2022-10-22T09:04:32;100627.31;;;18.46;51.60
62976;BME280;49071;0.000;0.000;2022-10-22T09:07:39;100629.97;;;18.59;51.48
62976;BME280;49071;0.000;0.000;2022-10-22T09:10:42;100616.44;;;18.66;51.39
62976;BME280;49071;0.000;0.000;2022-10-22T09:13:45;100623.91;;;18.79;51.18
62976;BME280;49071;0.000;0.000;2022-10-22T09:26:24;100612.16;;;19.50;50.50
62976;BME280;49071;0.000;0.000;2022-10-22T09:29:28;100618.66;;;19.56;50.25
62976;BME280;49071;0.000;0.000;2022-10-22T09:32:30;100620.78;;;19.61;50.05
62976;BME280;49071;0.000;0.000;2022-10-22T09:36:14;100624.66;;;19.64;50.00
62976;BME280;49071;0.000;0.000;2022-10-22T09:38:54;100619.06;;;19.64;49.92
62976;BME280;49071;0.000;0.000;2022-10-22T09:41:54;100621.59;;;19.62;50.05
62976;BME280;49071;0.000;0.000;2022-10-22T09:44:56;100625.16;;;19.63;49.98
62976;BME280;49071;0.000;0.000;2022-10-22T09:48:02;100626.41;;;19.61;49.98
62976;BME280;49071;0.000;0.000;2022-10-22T09:54:16;100627.34;;;19.58;50.05
62976;BME280;49071;0.000;0.000;2022-10-22T09:57:21;100632.97;;;19.58;50.02
62976;BME280;49071;0.000;0.000;2022-10-22T10:00:21;100624.41;;;19.62;50.11
62976;BME280;49071;0.000;0.000;2022-10-22T10:03:25;100625.31;;;19.59;50.09
62976;BME280;49071;0.000;0.000;2022-10-22T10:06:25;100625.19;;;19.53;50.13
62976;BME280;49071;0.000;0.000;2022-10-22T10:09:30;100628.16;;;19.50;50.34
62976;BME280;49071;0.000;0.000;2022-10-22T10:15:39;100634.13;;;19.43;50.46
62976;BME280;49071;0.000;0.000;2022-10-22T10:22:09;100625.91;;;19.30;50.72
62976;BME280;49071;0.000;0.000;2022-10-22T10:28:31;100634.34;;;19.21;50.88
62976;BME280;49071;0.000;0.000;2022-10-22T10:44:31;100620.78;;;19.61;50.31
62976;BME280;49071;0.000;0.000;2022-10-22T10:47:42;100612.22;;;19.74;50.11
62976;BME280;49071;0.000;0.000;2022-10-22T10:54:11;100628.47;;;19.85;49.75
62976;BME280;49071;0.000;0.000;2022-10-22T11:00:21;100621.16;;;19.88;49.55
62976;BME280;49071;0.000;0.000;2022-10-22T11:06:48;100630.22;;;19.82;49.54
62976;BME280;49071;0.000;0.000;2022-10-22T11:09:52;100634.44;;;19.78;49.81
62976;BME280;49071;0.000;0.000;2022-10-22T11:12:55;100634.13;;;19.76;49.78
62976;BME280;49071;0.000;0.000;2022-10-22T11:16:02;100644.28;;;19.73;49.76
62976;BME280;49071;0.000;0.000;2022-10-22T11:19:05;100638.09;;;19.69;49.89
62976;BME280;49071;0.000;0.000;2022-10-22T11:25:20;100646.31;;;19.64;49.97
62976;BME280;49071;0.000;0.000;2022-10-22T11:31:24;100641.06;;;19.56;50.00
62976;BME280;49071;0.000;0.000;2022-10-22T11:34:33;100646.34;;;19.54;49.99
62976;BME280;49071;0.000;0.000;2022-10-22T11:37:36;100646.53;;;19.51;50.11
62976;BME280;49071;0.000;0.000;2022-10-22T11:40:38;100644.69;;;19.48;50.13
62976;BME280;49071;0.000;0.000;2022-10-22T11:47:08;100644.22;;;19.40;50.25
62976;BME280;49071;0.000;0.000;2022-10-22T11:50:19;100638.03;;;19.36;50.22
62976;BME280;49071;0.000;0.000;2022-10-22T11:53:33;100641.78;;;19.33;50.31
62976;BME280;49071;0.000;0.000;2022-10-22T11:56:37;100650.78;;;19.37;50.23
62976;BME280;49071;0.000;0.000;2022-10-22T11:59:40;100648.28;;;19.39;50.20
62976;BME280;49071;0.000;0.000;2022-10-22T12:02:43;100648.41;;;19.45;50.28
62976;BME280;49071;0.000;0.000;2022-10-22T12:05:44;100642.97;;;19.50;50.08
62976;BME280;49071;0.000;0.000;2022-10-22T12:11:48;100648.16;;;19.76;49.67
62976;BME280;49071;0.000;0.000;2022-10-22T12:14:53;100650.44;;;19.87;49.52
62976;BME280;49071;0.000;0.000;2022-10-22T12:18:00;100654.84;;;20.02;49.31
62976;BME280;49071;0.000;0.000;2022-10-22T12:21:02;100645.41;;;20.15;49.23
62976;BME280;49071;0.000;0.000;2022-10-22T12:24:02;100654.72;;;20.21;49.10
62976;BME280;49071;0.000;0.000;2022-10-22T12:27:13;100655.50;;;20.21;49.14
62976;BME280;49071;0.000;0.000;2022-10-22T12:30:24;100656.00;;;20.20;49.07
62976;BME280;49071;0.000;0.000;2022-10-22T12:33:25;100661.31;;;20.18;49.05
62976;BME280;49071;0.000;0.000;2022-10-22T12:36:28;100651.81;;;20.15;49.08
62976;BME280;49071;0.000;0.000;2022-10-22T12:39:29;100658.84;;;20.11;49.21
62976;BME280;49071;0.000;0.000;2022-10-22T12:42:32;100656.97;;;20.08;49.23
62976;BME280;49071;0.000;0.000;2022-10-22T12:45:32;100652.63;;;20.07;49.31
62976;BME280;49071;0.000;0.000;2022-10-22T12:48:35;100655.34;;;20.01;49.33
62976;BME280;49071;0.000;0.000;2022-10-22T12:51:37;100650.19;;;19.99;49.47
62976;BME280;49071;0.000;0.000;2022-10-22T12:54:37;100649.13;;;19.97;49.57
62976;BME280;49071;0.000;0.000;2022-10-22T12:57:38;100653.78;;;20.00;49.43
62976;BME280;49071;0.000;0.000;2022-10-22T13:00:38;100653.47;;;19.98;49.70
62976;BME280;49071;0.000;0.000;2022-10-22T13:03:41;100656.75;;;19.96;49.69
62976;BME280;49071;0.000;0.000;2022-10-22T13:06:42;100653.66;;;19.94;49.86
62976;BME280;49071;0.000;0.000;2022-10-22T13:09:45;100659.72;;;19.93;49.84
62976;BME280;49071;0.000;0.000;2022-10-22T13:12:48;100661.16;;;19.88;49.97
62976;BME280;49071;0.000;0.000;2022-10-22T13:15:49;100665.38;;;19.83;50.05
62976;BME280;49071;0.000;0.000;2022-10-22T13:18:49;100658.25;;;19.82;50.20
62976;BME280;49071;0.000;0.000;2022-10-22T13:21:50;100673.69;;;19.78;50.34
62976;BME280;49071;0.000;0.000;2022-10-22T13:24:52;100674.63;;;19.75;50.31
62976;BME280;49071;0.000;0.000;2022-10-22T13:28:12;100674.03;;;19.71;50.68
62976;BME280;49071;0.000;0.000;2022-10-22T13:31:18;100677.78;;;19.68;50.61
62976;BME280;49071;0.000;0.000;2022-10-22T13:34:19;100677.13;;;19.64;50.65
62976;BME280;49071;0.000;0.000;2022-10-22T13:37:20;100679.16;;;19.63;50.67
62976;BME280;49071;0.000;0.000;2022-10-22T13:40:21;100680.91;;;19.60;50.85
62976;BME280;49071;0.000;0.000;2022-10-22T13:43:21;100683.84;;;19.57;50.90
62976;BME280;49071;0.000;0.000;2022-10-22T13:46:21;100676.41;;;19.54;51.24
62976;BME280;49071;0.000;0.000;2022-10-22T13:49:23;100682.50;;;19.52;51.29
62976;BME280;49071;0.000;0.000;2022-10-22T13:52:27;100685.00;;;19.50;51.33
62976;BME280;49071;0.000;0.000;2022-10-22T13:55:28;100689.50;;;19.48;51.39
62976;BME280;49071;0.000;0.000;2022-10-22T13:58:29;100685.63;;;19.45;51.46
62976;BME280;49071;0.000;0.000;2022-10-22T14:01:29;100686.56;;;19.42;51.32
62976;BME280;49071;0.000;0.000;2022-10-22T14:04:29;100684.25;;;19.40;51.45
62976;BME280;49071;0.000;0.000;2022-10-22T14:07:29;100685.16;;;19.37;51.67
62976;BME280;49071;0.000;0.000;2022-10-22T14:10:30;100682.84;;;19.36;51.63
62976;BME280;49071;0.000;0.000;2022-10-22T14:13:30;100679.75;;;19.34;51.66
62976;BME280;49071;0.000;0.000;2022-10-22T14:16:30;100692.50;;;19.35;51.83
62976;BME280;49071;0.000;0.000;2022-10-22T14:19:32;100688.63;;;19.32;51.45
62976;BME280;49071;0.000;0.000;2022-10-22T14:22:32;100689.38;;;19.33;51.75
62976;BME280;49071;0.000;0.000;2022-10-22T14:25:32;100693.91;;;19.30;51.84
62976;BME280;49071;0.000;0.000;2022-10-22T14:28:33;100695.16;;;19.29;52.01
62976;BME280;49071;0.000;0.000;2022-10-22T14:31:35;100700.00;;;19.29;51.92
62976;BME280;49071;0.000;0.000;2022-10-22T14:34:36;100702.16;;;19.34;52.02
62976;BME280;49071;0.000;0.000;2022-10-22T14:37:36;100706.50;;;19.35;51.99
62976;BME280;49071;0.000;0.000;2022-10-22T14:40:36;100697.78;;;19.33;52.11
62976;BME280;49071;0.000;0.000;2022-10-22T14:43:38;100706.81;;;19.28;52.27
62976;BME280;49071;0.000;0.000;2022-10-22T14:46:38;100712.75;;;19.30;52.18
62976;BME280;49071;0.000;0.000;2022-10-22T14:49:41;100724.56;;;19.34;52.13
62976;BME280;49071;0.000;0.000;2022-10-22T14:52:41;100716.81;;;19.29;52.23
62976;BME280;49071;0.000;0.000;2022-10-22T14:55:44;100724.13;;;19.26;52.23
62976;BME280;49071;0.000;0.000;2022-10-22T14:58:46;100722.09;;;19.27;52.16
62976;BME280;49071;0.000;0.000;2022-10-22T15:01:46;100716.63;;;19.32;51.94
62976;BME280;49071;0.000;0.000;2022-10-22T15:04:47;100717.69;;;19.35;52.02
62976;BME280;49071;0.000;0.000;2022-10-22T15:07:47;100723.91;;;19.48;51.88
62976;BME280;49071;0.000;0.000;2022-10-22T15:11:08;100725.88;;;19.57;51.58
62976;BME280;49071;0.000;0.000;2022-10-22T15:14:09;100727.13;;;19.74;51.35
62976;BME280;49071;0.000;0.000;2022-10-22T15:17:09;100729.69;;;19.87;51.23
62976;BME280;49071;0.000;0.000;2022-10-22T15:20:09;100728.03;;;20.04;51.10
62976;BME280;49071;0.000;0.000;2022-10-22T15:23:09;100731.88;;;20.16;50.76
62976;BME280;49071;0.000;0.000;2022-10-22T15:26:10;100732.47;;;20.20;50.59
62976;BME280;49071;0.000;0.000;2022-10-22T15:29:11;100735.75;;;20.19;50.69
62976;BME280;49071;0.000;0.000;2022-10-22T15:32:11;100744.63;;;20.17;50.62
62976;BME280;49071;0.000;0.000;2022-10-22T15:35:11;100739.03;;;20.17;50.70
62976;BME280;49071;0.000;0.000;2022-10-22T15:38:11;100742.03;;;20.14;50.65
62976;BME280;49071;0.000;0.000;2022-10-22T15:41:12;100740.19;;;20.11;50.87
62976;BME280;49071;0.000;0.000;2022-10-22T15:44:16;100745.78;;;20.11;50.76
62976;BME280;49071;0.000;0.000;2022-10-22T15:47:16;100746.25;;;20.09;50.87
62976;BME280;49071;0.000;0.000;2022-10-22T15:50:17;100749.25;;;20.06;50.70
62976;BME280;49071;0.000;0.000;2022-10-22T15:53:17;100746.13;;;20.03;50.83
62976;BME280;49071;0.000;0.000;2022-10-22T15:56:17;100753.94;;;19.99;50.96
62976;BME280;49071;0.000;0.000;2022-10-22T15:59:18;100756.44;;;19.97;50.84
62976;BME280;49071;0.000;0.000;2022-10-22T16:02:18;100758.16;;;19.95;50.82
62976;BME280;49071;0.000;0.000;2022-10-22T16:05:18;100759.88;;;19.92;51.01
62976;BME280;49071;0.000;0.000;2022-10-22T16:08:19;100762.38;;;19.90;51.00
62976;BME280;49071;0.000;0.000;2022-10-22T16:11:19;100768.47;;;19.89;51.00
62976;BME280;49071;0.000;0.000;2022-10-22T16:14:20;100764.59;;;19.86;51.03
62976;BME280;49071;0.000;0.000;2022-10-22T16:17:20;100771.13;;;19.83;51.18
62976;BME280;49071;0.000;0.000;2022-10-22T16:20:21;100769.59;;;19.82;51.27
62976;BME280;49071;0.000;0.000;2022-10-22T16:23:21;100780.94;;;19.78;51.26
62976;BME280;49071;0.000;0.000;2022-10-22T16:26:21;100780.19;;;19.78;51.27
62976;BME280;49071;0.000;0.000;2022-10-22T16:29:21;100782.38;;;19.74;51.37
62976;BME280;49071;0.000;0.000;2022-10-22T16:32:22;100785.16;;;19.74;51.45
62976;BME280;49071;0.000;0.000;2022-10-22T16:35:22;100784.88;;;19.72;51.45
62976;BME280;49071;0.000;0.000;2022-10-22T16:38:22;100785.34;;;19.70;51.64
62976;BME280;49071;0.000;0.000;2022-10-22T16:41:23;100792.97;;;19.70;51.59
62976;BME280;49071;0.000;0.000;2022-10-22T16:44:24;100795.13;;;19.66;51.76
62976;BME280;49071;0.000;0.000;2022-10-22T16:47:24;100796.09;;;19.63;51.77
62976;BME280;49071;0.000;0.000;2022-10-22T16:50:24;100793.75;;;19.61;51.95
62976;BME280;49071;0.000;0.000;2022-10-22T16:53:24;100799.22;;;19.55;52.15
62976;BME280;49071;0.000;0.000;2022-10-22T16:56:25;100799.38;;;19.52;52.08
62976;BME280;49071;0.000;0.000;2022-10-22T16:59:25;100803.13;;;19.49;52.17
62976;BME280;49071;0.000;0.000;2022-10-22T17:02:26;100801.09;;;19.49;52.06
62976;BME280;49071;0.000;0.000;2022-10-22T17:05:26;100801.25;;;19.46;52.16
62976;BME280;49071;0.000;0.000;2022-10-22T17:08:26;100800.00;;;19.47;52.25
62976;BME280;49071;0.000;0.000;2022-10-22T17:11:26;100807.00;;;19.42;52.25
62976;BME280;49071;0.000;0.000;2022-10-22T17:14:29;100811.97;;;19.47;52.27
62976;BME280;49071;0.000;0.000;2022-10-22T17:17:29;100807.94;;;19.48;52.24
62976;BME280;49071;0.000;0.000;2022-10-22T17:20:29;100810.09;;;19.53;52.10
62976;BME280;49071;0.000;0.000;2022-10-22T17:23:29;100814.44;;;19.64;51.91
62976;BME280;49071;0.000;0.000;2022-10-22T17:26:30;100818.97;;;19.79;51.69
62976;BME280;49071;0.000;0.000;2022-10-22T17:29:32;100825.13;;;19.93;51.26
62976;BME280;49071;0.000;0.000;2022-10-22T17:32:35;100829.59;;;20.09;51.13
62976;BME280;49071;0.000;0.000;2022-10-22T17:35:38;100832.31;;;20.27;50.61
62976;BME280;49071;0.000;0.000;2022-10-22T17:38:39;100838.94;;;20.39;50.58
62976;BME280;49071;0.000;0.000;2022-10-22T17:41:40;100840.66;;;20.45;50.40
62976;BME280;49071;0.000;0.000;2022-10-22T17:44:40;100845.94;;;20.43;50.63
62976;BME280;49071;0.000;0.000;2022-10-22T17:47:40;100842.84;;;20.41;50.58
62976;BME280;49071;0.000;0.000;2022-10-22T17:50:41;100848.16;;;20.39;50.46
62976;BME280;49071;0.000;0.000;2022-10-22T17:53:41;100855.03;;;20.38;50.58
62976;BME280;49071;0.000;0.000;2022-10-22T17:56:49;100856.59;;;20.39;50.73
62976;BME280;49071;0.000;0.000;2022-10-22T17:59:49;100857.06;;;20.38;50.74
62976;BME280;49071;0.000;0.000;2022-10-22T18:02:49;100854.25;;;20.38;50.75
62976;BME280;49071;0.000;0.000;2022-10-22T18:05:49;100863.78;;;20.31;51.06
62976;BME280;49071;0.000;0.000;2022-10-22T18:08:50;100865.03;;;20.30;51.09
62976;BME280;49071;0.000;0.000;2022-10-22T18:11:50;100865.03;;;20.30;51.08
62976;BME280;49071;0.000;0.000;2022-10-22T18:14:51;100863.97;;;20.28;51.15
62976;BME280;49071;0.000;0.000;2022-10-22T18:17:52;100860.53;;;20.23;51.66
62976;BME280;49071;0.000;0.000;2022-10-22T18:20:53;100856.66;;;20.21;51.46
62976;BME280;49071;0.000;0.000;2022-10-22T18:23:53;100856.66;;;20.21;51.68
62976;BME280;49071;0.000;0.000;2022-10-22T18:26:54;100868.03;;;20.17;51.77
62976;BME280;49071;0.000;0.000;2022-10-22T18:29:54;100875.38;;;20.15;51.65
62976;BME280;49071;0.000;0.000;2022-10-22T18:32:54;100879.91;;;20.12;51.98
62976;BME280;49071;0.000;0.000;2022-10-22T18:35:54;100875.69;;;20.08;51.81
62976;BME280;49071;0.000;0.000;2022-10-22T18:38:56;100875.56;;;20.02;51.98
62976;BME280;49071;0.000;0.000;2022-10-22T18:41:57;100878.84;;;20.00;52.14
62976;BME280;49071;0.000;0.000;2022-10-22T18:44:57;100870.91;;;19.99;52.08
62976;BME280;49071;0.000;0.000;2022-10-22T18:47:57;100870.16;;;19.98;52.33
62976;BME280;49071;0.000;0.000;2022-10-22T18:51:00;100867.50;;;19.95;52.31
62976;BME280;49071;0.000;0.000;2022-10-22T18:54:01;100872.00;;;19.92;52.47
62976;BME280;49071;0.000;0.000;2022-10-22T18:57:01;100868.13;;;19.90;52.65
62976;BME280;49071;0.000;0.000;2022-10-22T19:00:02;100870.94;;;19.90;52.82
62976;BME280;49071;0.000;0.000;2022-10-22T19:03:03;100878.25;;;19.87;52.61
62976;BME280;49071;0.000;0.000;2022-10-22T19:06:03;100877.50;;;19.87;53.01
62976;BME280;49071;0.000;0.000;2022-10-22T19:09:04;100884.03;;;19.83;52.74
62976;BME280;49071;0.000;0.000;2022-10-22T19:12:05;100884.03;;;19.83;52.90
62976;BME280;49071;0.000;0.000;2022-10-22T19:15:05;100876.56;;;19.80;53.09
62976;BME280;49071;0.000;0.000;2022-10-22T19:18:05;100878.59;;;19.80;53.21
62976;BME280;49071;0.000;0.000;2022-10-22T19:21:06;100889.03;;;19.79;53.33
62976;BME280;49071;0.000;0.000;2022-10-22T19:24:06;100887.47;;;19.78;53.24
62976;BME280;49071;0.000;0.000;2022-10-22T19:27:07;100887.94;;;19.77;53.39
62976;BME280;49071;0.000;0.000;2022-10-22T19:30:07;100892.28;;;19.78;53.47
62976;BME280;49071;0.000;0.000;2022-10-22T19:33:08;100890.75;;;19.77;53.61
62976;BME280;49071;0.000;0.000;2022-10-22T19:36:09;100902.88;;;19.74;53.78
62976;BME280;49071;0.000;0.000;2022-10-22T19:39:12;100898.06;;;19.74;53.72
62976;BME280;49071;0.000;0.000;2022-10-22T19:42:13;100898.22;;;19.71;53.74
62976;BME280;49071;0.000;0.000;2022-10-22T19:45:13;100898.53;;;19.73;53.83
62976;BME280;49071;0.000;0.000;2022-10-22T19:48:14;100895.72;;;19.73;53.78
62976;BME280;49071;0.000;0.000;2022-10-22T19:51:15;100907.41;;;19.71;53.87
62976;BME280;49071;0.000;0.000;2022-10-22T19:54:16;100907.22;;;19.66;53.82
62976;BME280;49071;0.000;0.000;2022-10-22T19:57:19;100905.38;;;19.63;53.91
62976;BME280;49071;0.000;0.000;2022-10-22T20:00:19;100903.19;;;19.57;54.02
62976;BME280;49071;0.000;0.000;2022-10-22T20:03:20;100901.94;;;19.58;54.05
62976;BME280;49071;0.000;0.000;2022-10-22T20:06:20;100906.28;;;19.59;54.26
62976;BME280;49071;0.000;0.000;2022-10-22T20:09:20;100910.03;;;19.56;54.19
62976;BME280;49071;0.000;0.000;2022-10-22T20:12:21;100910.97;;;19.53;54.26
62976;BME280;49071;0.000;0.000;2022-10-22T20:15:21;100913.47;;;19.51;54.21
62976;BME280;49071;0.000;0.000;2022-10-22T20:18:21;100918.75;;;19.49;54.37
62976;BME280;49071;0.000;0.000;2022-10-22T20:21:22;100915.63;;;19.47;54.26
62976;BME280;49071;0.000;0.000;2022-10-22T20:24:22;100918.16;;;19.45;54.19
62976;BME280;49071;0.000;0.000;2022-10-22T20:27:22;100919.38;;;19.44;54.29
62976;BME280;49071;0.000;0.000;2022-10-22T20:30:23;100929.03;;;19.43;54.42
62976;BME280;49071;0.000;0.000;2022-10-22T20:33:23;100931.53;;;19.41;54.40
62976;BME280;49071;0.000;0.000;2022-10-22T20:36:23;100929.16;;;19.39;54.28
62976;BME280;49071;0.000;0.000;2022-10-22T20:39:24;100929.16;;;19.39;54.25
62976;BME280;49071;0.000;0.000;2022-10-22T20:42:24;100926.84;;;19.38;54.19
62976;BME280;49071;0.000;0.000;2022-10-22T20:45:24;100928.09;;;19.37;54.00
62976;BME280;49071;0.000;0.000;2022-10-22T20:48:26;100934.94;;;19.36;54.21
